createdAt,value
2022-08-21T00:04:57.649Z,18.46
2022-08-21T00:10:02.174Z,18.44
2022-08-21T00:15:06.474Z,18.41
2022-08-21T00:20:13.301Z,18.39
2022-08-21T00:25:18.251Z,18.49
2022-08-21T00:30:26.424Z,18.58
2022-08-21T00:35:31.453Z,18.61
2022-08-21T00:40:40.504Z,18.68
2022-08-21T00:45:43.620Z,18.64
2022-08-21T00:50:48.982Z,18.71
2022-08-21T00:55:54.050Z,18.70
2022-08-21T01:00:59.794Z,18.74
2022-08-21T01:06:02.695Z,18.72
2022-08-21T01:11:07.226Z,18.76
2022-08-21T01:16:11.521Z,18.77
2022-08-21T01:21:18.814Z,18.72
2022-08-21T01:26:24.413Z,18.72
2022-08-21T01:31:36.441Z,18.73
2022-08-21T01:36:40.934Z,18.73
2022-08-21T01:41:44.045Z,18.74
2022-08-21T01:46:46.828Z,18.73
2022-08-21T01:51:50.907Z,18.72
2022-08-21T01:56:55.820Z,18.69
2022-08-21T02:01:58.955Z,18.63
2022-08-21T02:07:03.822Z,18.61
2022-08-21T02:12:10.106Z,18.58
2022-08-21T02:17:12.835Z,18.56
2022-08-21T02:22:17.160Z,18.52
2022-08-21T02:27:20.434Z,18.51
2022-08-21T02:32:29.241Z,18.50
2022-08-21T02:37:33.465Z,18.44
2022-08-21T02:42:36.293Z,18.42
2022-08-21T02:47:39.277Z,18.41
2022-08-21T02:52:43.586Z,18.37
2022-08-21T02:57:46.324Z,18.38
2022-08-21T03:02:49.296Z,18.34
2022-08-21T03:07:54.020Z,18.35
2022-08-21T03:12:57.083Z,18.31
2022-08-21T03:18:00.515Z,18.25
2022-08-21T03:23:06.222Z,18.25
2022-08-21T03:28:20.687Z,18.18
2022-08-21T03:33:24.101Z,18.16
2022-08-21T03:38:28.973Z,18.11
2022-08-21T03:43:32.533Z,18.11
2022-08-21T03:48:37.418Z,18.07
2022-08-21T03:53:41.482Z,18.04
2022-08-21T03:58:45.054Z,18.01
2022-08-21T04:03:47.753Z,18.00
2022-08-21T04:08:51.864Z,18.03
2022-08-21T04:13:54.566Z,18.04
2022-08-21T04:18:57.348Z,18.02
2022-08-21T04:24:01.416Z,17.96
2022-08-21T04:29:05.817Z,17.92
2022-08-21T04:34:08.579Z,17.88
2022-08-21T04:39:12.681Z,17.87
2022-08-21T04:44:15.869Z,17.89
2022-08-21T04:49:18.695Z,17.91
2022-08-21T04:54:24.042Z,17.98
2022-08-21T04:59:28.697Z,18.04
2022-08-21T05:04:33.320Z,18.07
2022-08-21T05:09:39.023Z,18.06
2022-08-21T05:14:43.256Z,18.07
2022-08-21T05:19:46.360Z,18.12
2022-08-21T05:24:50.470Z,18.16
2022-08-21T05:29:53.350Z,18.16
2022-08-21T05:34:56.110Z,18.17
2022-08-21T05:40:05.410Z,18.20
2022-08-21T05:45:41.930Z,18.25
2022-08-21T05:50:47.713Z,18.24
2022-08-21T05:55:51.977Z,18.22
2022-08-21T06:00:54.705Z,18.30
2022-08-21T06:05:57.680Z,18.40
2022-08-21T06:11:02.875Z,18.49
2022-08-21T06:16:08.141Z,18.64
2022-08-21T06:21:12.361Z,18.76
2022-08-21T06:26:16.771Z,18.86
2022-08-21T06:31:21.004Z,18.94
2022-08-21T06:36:24.429Z,19.09
2022-08-21T06:41:28.796Z,19.23
2022-08-21T06:46:32.152Z,19.35
2022-08-21T06:51:35.082Z,19.42
2022-08-21T06:56:39.341Z,19.45
2022-08-21T07:01:42.272Z,19.38
2022-08-21T07:06:45.089Z,19.32
2022-08-21T07:11:52.958Z,19.25
2022-08-21T07:16:55.810Z,19.17
2022-08-21T07:22:00.747Z,19.26
2022-08-21T07:27:09.808Z,19.24
2022-08-21T07:32:13.366Z,19.30
2022-08-21T07:37:16.164Z,19.36
2022-08-21T07:42:21.734Z,19.33
2022-08-21T07:47:29.473Z,19.45
2022-08-21T07:52:45.580Z,19.55
2022-08-21T07:57:50.039Z,19.62
2022-08-21T08:02:55.370Z,19.65
2022-08-21T08:07:58.594Z,19.69
2022-08-21T08:13:02.815Z,19.71
2022-08-21T08:18:06.085Z,19.77
2022-08-21T08:23:09.062Z,19.80
2022-08-21T08:28:16.568Z,19.95
2022-08-21T08:33:21.172Z,20.04
2022-08-21T08:38:25.850Z,20.13
2022-08-21T08:43:30.823Z,20.15
2022-08-21T08:48:47.177Z,20.22
2022-08-21T08:54:00.210Z,20.37
2022-08-21T08:59:10.664Z,20.36
2022-08-21T09:04:14.445Z,20.46
2022-08-21T09:09:24.994Z,20.57
2022-08-21T09:14:41.955Z,20.73
2022-08-21T09:19:54.925Z,20.85
2022-08-21T09:25:09.718Z,20.85
2022-08-21T09:30:14.825Z,20.89
2022-08-21T09:35:20.648Z,21.15
2022-08-21T09:40:35.737Z,21.43
2022-08-21T09:45:40.691Z,21.76
2022-08-21T09:50:44.781Z,22.05
2022-08-21T09:56:11.946Z,22.44
2022-08-21T10:01:18.443Z,22.41
2022-08-21T10:06:27.470Z,22.14
2022-08-21T10:11:30.932Z,21.83
2022-08-21T10:16:42.003Z,21.73
2022-08-21T10:21:50.498Z,21.90
2022-08-21T10:26:57.134Z,22.16
2022-08-21T10:32:21.264Z,22.43
2022-08-21T10:37:38.326Z,22.38
2022-08-21T10:42:48.255Z,22.34
2022-08-21T10:47:58.153Z,22.35
2022-08-21T10:53:17.115Z,22.52
2022-08-21T10:58:23.489Z,22.47
2022-08-21T11:03:31.584Z,22.69
2022-08-21T11:08:37.597Z,23.09
2022-08-21T11:13:43.998Z,23.53
2022-08-21T11:18:52.626Z,23.91
2022-08-21T11:23:58.589Z,24.27
2022-08-21T11:29:05.899Z,24.01
2022-08-21T11:34:18.135Z,23.86
2022-08-21T11:39:25.120Z,23.92
2022-08-21T11:44:35.537Z,24.09
2022-08-21T11:49:51.872Z,23.86
2022-08-21T11:54:59.654Z,26.09
2022-08-21T12:00:07.888Z,26.81
2022-08-21T12:05:29.134Z,27.42
2022-08-21T12:10:38.269Z,27.91
2022-08-21T12:15:41.224Z,28.90
2022-08-21T12:21:02.475Z,28.70
2022-08-21T12:26:22.782Z,28.36
2022-08-21T12:31:27.594Z,28.38
2022-08-21T12:36:42.787Z,28.32
2022-08-21T12:41:49.853Z,28.11
2022-08-21T12:46:54.336Z,28.17
2022-08-21T12:52:04.555Z,28.83
2022-08-21T12:57:09.135Z,28.07
2022-08-21T13:02:18.484Z,28.35
2022-08-21T13:07:28.000Z,28.42
2022-08-21T13:12:32.411Z,28.06
2022-08-21T13:17:38.904Z,28.38
2022-08-21T13:22:46.607Z,28.75
2022-08-21T13:28:01.034Z,28.73
2022-08-21T13:33:12.840Z,28.75
2022-08-21T13:38:18.038Z,29.21
2022-08-21T13:43:23.456Z,29.37
2022-08-21T13:48:28.391Z,29.30
2022-08-21T13:53:34.954Z,29.51
2022-08-21T13:58:45.102Z,29.69
2022-08-21T14:03:50.010Z,28.80
2022-08-21T14:08:56.311Z,27.19
2022-08-21T14:14:00.735Z,27.71
2022-08-21T14:19:12.673Z,29.02
2022-08-21T14:24:28.266Z,29.66
2022-08-21T14:29:35.916Z,30.38
2022-08-21T14:34:38.949Z,30.80
2022-08-21T14:39:45.259Z,31.23
2022-08-21T14:44:48.421Z,31.42
2022-08-21T14:49:54.171Z,30.84
2022-08-21T14:54:58.351Z,28.50
2022-08-21T15:00:02.269Z,30.13
2022-08-21T15:05:05.839Z,31.50
2022-08-21T15:10:10.546Z,31.38
2022-08-21T15:15:13.751Z,30.92
2022-08-21T15:20:20.744Z,30.55
2022-08-21T15:25:25.059Z,30.25
2022-08-21T15:30:28.042Z,29.17
2022-08-21T15:35:34.338Z,28.78
2022-08-21T15:40:47.831Z,28.20
2022-08-21T15:45:56.637Z,28.29
2022-08-21T15:51:00.998Z,28.54
2022-08-21T15:56:07.516Z,28.70
2022-08-21T16:01:17.955Z,28.60
2022-08-21T16:06:38.587Z,28.66
2022-08-21T16:11:46.210Z,28.84
2022-08-21T16:16:49.065Z,28.64
2022-08-21T16:21:51.967Z,28.43
2022-08-21T16:26:58.067Z,28.37
2022-08-21T16:32:01.384Z,28.14
2022-08-21T16:37:04.708Z,27.62
2022-08-21T16:42:11.217Z,27.39
2022-08-21T16:47:26.673Z,27.13
2022-08-21T16:52:30.274Z,26.98
2022-08-21T16:57:34.465Z,26.61
2022-08-21T17:02:39.242Z,26.39
2022-08-21T17:07:42.875Z,26.20
2022-08-21T17:12:55.655Z,26.02
2022-08-21T17:17:58.545Z,25.69
2022-08-21T17:23:01.558Z,25.44
2022-08-21T17:28:05.951Z,25.14
2022-08-21T17:33:08.682Z,25.05
2022-08-21T17:38:14.787Z,24.90
2022-08-21T17:43:19.456Z,24.62
2022-08-21T17:48:25.377Z,24.24
2022-08-21T17:53:28.475Z,23.99
2022-08-21T17:58:33.282Z,23.76
2022-08-21T18:03:38.570Z,23.52
2022-08-21T18:08:41.646Z,23.24
2022-08-21T18:13:46.182Z,23.00
2022-08-21T18:18:51.434Z,22.88
2022-08-21T18:23:55.595Z,22.78
2022-08-21T18:29:01.477Z,22.67
2022-08-21T18:34:10.668Z,22.48
2022-08-21T18:39:35.066Z,22.35
2022-08-21T18:44:37.605Z,22.26
2022-08-21T18:55:06.279Z,22.04
2022-08-21T19:00:21.062Z,21.91
2022-08-21T19:05:25.259Z,21.78
2022-08-21T19:15:54.669Z,21.49
2022-08-21T19:20:58.006Z,21.40
2022-08-21T19:26:03.260Z,21.32
2022-08-21T19:31:11.682Z,21.21
2022-08-21T19:36:15.304Z,21.10
2022-08-21T19:41:19.764Z,20.99
2022-08-21T19:46:27.482Z,20.89
2022-08-21T19:51:30.974Z,20.83
2022-08-21T19:56:34.514Z,20.74
2022-08-21T20:01:40.011Z,20.62
2022-08-21T20:06:42.983Z,20.52
2022-08-21T20:11:49.036Z,20.48
2022-08-21T20:16:54.280Z,20.39
2022-08-21T20:21:58.380Z,20.33
2022-08-21T20:27:02.169Z,20.26
2022-08-21T20:32:11.956Z,20.17
2022-08-21T20:42:39.617Z,19.99
2022-08-21T20:47:43.919Z,19.88
2022-08-21T20:52:51.391Z,19.89
2022-08-21T20:58:00.455Z,19.83
2022-08-21T21:03:08.586Z,19.68
2022-08-21T21:08:17.188Z,19.62
2022-08-21T21:13:25.475Z,19.58
2022-08-21T21:18:33.439Z,19.58
2022-08-21T21:23:42.712Z,19.52
2022-08-21T21:28:50.060Z,19.49
2022-08-21T21:33:54.987Z,19.34
2022-08-21T21:39:08.605Z,19.23
2022-08-21T21:44:25.365Z,19.23
2022-08-21T21:49:56.081Z,19.15
2022-08-21T21:55:09.620Z,19.05
2022-08-21T22:00:16.322Z,19.01
2022-08-21T22:05:27.526Z,18.95
2022-08-21T22:10:42.930Z,18.92
2022-08-21T22:15:46.581Z,18.82
2022-08-21T22:20:54.882Z,18.77
2022-08-21T22:26:04.785Z,18.78
2022-08-21T22:31:21.039Z,18.66
2022-08-21T22:36:25.211Z,18.56
2022-08-21T22:41:32.283Z,18.54
2022-08-21T22:46:39.070Z,18.47
2022-08-21T22:51:46.608Z,18.38
2022-08-21T22:56:59.811Z,18.32
2022-08-21T23:02:07.245Z,18.19
2022-08-21T23:07:35.609Z,18.19
2022-08-21T23:12:49.821Z,18.11
2022-08-21T23:18:01.999Z,18.11
2022-08-21T23:23:23.020Z,18.04
2022-08-21T23:28:48.447Z,17.99
2022-08-21T23:34:05.993Z,17.98
2022-08-21T23:39:21.036Z,17.93
2022-08-21T23:44:37.037Z,17.96
2022-08-21T23:49:53.867Z,17.81
2022-08-21T23:55:10.424Z,17.72
